Terminal Aerodrome Forecast
Issued by NWS

Current Version | Previous Version | Graphics & Text | Print | Product List | Glossary On
Versions: 1 2 3 4 5 6 7 8 9 10 11 12 13 14 15 16 17 18
341
FTUS41 KPBZ 160743 AAA
TAFHLG
TAF AMD
KHLG 160743Z 1608/1706 00000KT 1/4SM FG BKN002
     FM161300 32005KT P6SM SCT035=

USA.gov is the U.S. government's official web portal to all federal, state and local government web resources and services.